createdAt,value
2022-10-05T00:02:28.737Z,73.33
2022-10-05T00:07:32.781Z,72.93
2022-10-05T00:12:38.068Z,72.32
2022-10-05T00:17:43.454Z,72.44
2022-10-05T00:22:47.611Z,71.17
2022-10-05T00:27:57.834Z,71.86
2022-10-05T00:33:01.775Z,72.02
2022-10-05T00:38:05.906Z,72.45
2022-10-05T00:43:29.656Z,73.82
2022-10-05T00:48:43.659Z,72.86
2022-10-05T00:53:54.787Z,72.73
2022-10-05T00:59:14.347Z,71.89
2022-10-05T01:04:25.799Z,72.58
2022-10-05T01:09:40.509Z,73.79
2022-10-05T01:14:54.397Z,74.13
2022-10-05T01:20:21.404Z,73.78
2022-10-05T01:25:31.438Z,73.20
2022-10-05T01:30:45.853Z,72.82
2022-10-05T01:35:59.226Z,73.43
2022-10-05T01:41:13.609Z,73.21
2022-10-05T01:46:26.309Z,73.52
2022-10-05T01:51:41.835Z,73.53
2022-10-05T01:56:56.094Z,73.08
2022-10-05T02:02:05.540Z,73.28
2022-10-05T02:07:13.950Z,73.49
2022-10-05T02:12:24.537Z,72.47
2022-10-05T02:17:37.725Z,73.82
2022-10-05T02:22:47.796Z,75.16
2022-10-05T02:27:58.900Z,74.73
2022-10-05T02:33:11.737Z,76.65
2022-10-05T02:38:24.684Z,75.88
2022-10-05T02:43:39.025Z,75.46
2022-10-05T02:48:56.542Z,75.73
2022-10-05T02:54:12.700Z,74.15
2022-10-05T02:59:23.140Z,75.13
2022-10-05T03:04:39.848Z,74.09
2022-10-05T03:09:55.721Z,75.17
2022-10-05T03:15:16.487Z,74.56
2022-10-05T03:20:32.941Z,74.33
2022-10-05T03:25:57.211Z,75.45
2022-10-05T03:31:05.295Z,74.05
2022-10-05T03:36:21.585Z,73.06
2022-10-05T03:41:32.758Z,75.01
2022-10-05T03:46:50.642Z,76.05
2022-10-05T03:52:03.277Z,76.71
2022-10-05T03:57:12.582Z,76.81
2022-10-05T04:02:24.034Z,76.27
2022-10-05T04:07:40.838Z,77.05
2022-10-05T04:12:49.584Z,76.42
2022-10-05T04:17:58.751Z,76.26
2022-10-05T04:23:14.226Z,74.79
2022-10-05T04:28:29.626Z,74.04
2022-10-05T04:33:36.762Z,74.09
2022-10-05T04:39:04.773Z,73.68
2022-10-05T04:44:25.470Z,74.74
2022-10-05T04:49:45.732Z,74.57
2022-10-05T04:55:05.224Z,75.43
2022-10-05T05:00:23.934Z,75.01
2022-10-05T05:05:58.609Z,74.44
2022-10-05T05:11:24.395Z,74.16
2022-10-05T05:16:37.032Z,74.30
2022-10-05T05:21:50.938Z,74.85
2022-10-05T05:27:10.351Z,74.00
2022-10-05T05:32:27.162Z,74.88
2022-10-05T05:37:37.067Z,74.95
2022-10-05T05:42:53.073Z,75.59
2022-10-05T05:48:00.571Z,74.02
2022-10-05T05:53:12.184Z,74.80
2022-10-05T05:58:23.954Z,73.80
2022-10-05T06:03:36.458Z,72.32
2022-10-05T06:08:43.518Z,70.78
2022-10-05T06:14:13.981Z,70.68
2022-10-05T06:19:21.414Z,69.07
2022-10-05T06:24:31.047Z,67.80
2022-10-05T06:29:59.541Z,68.03
2022-10-05T06:35:16.835Z,67.57
2022-10-05T06:40:35.222Z,66.08
2022-10-05T06:45:54.126Z,65.50
2022-10-05T06:51:23.399Z,60.79
2022-10-05T06:56:57.533Z,59.37
2022-10-05T07:02:10.707Z,58.56
2022-10-05T07:07:23.468Z,54.67
2022-10-05T07:12:49.772Z,51.60
2022-10-05T07:18:10.078Z,53.39
2022-10-05T07:23:26.340Z,51.86
2022-10-05T07:28:37.994Z,49.18
2022-10-05T07:33:51.319Z,48.94
2022-10-05T07:39:02.608Z,48.53
2022-10-05T07:44:14.689Z,48.67
2022-10-05T07:49:34.026Z,47.68
2022-10-05T07:54:48.836Z,48.54
2022-10-05T08:00:00.040Z,47.83
2022-10-05T08:05:13.250Z,46.95
2022-10-05T08:10:27.075Z,45.16
2022-10-05T08:15:35.757Z,43.65
2022-10-05T08:20:48.555Z,42.45
2022-10-05T08:26:06.735Z,40.33
2022-10-05T08:31:20.767Z,39.95
2022-10-05T08:36:44.869Z,40.47
2022-10-05T08:42:14.297Z,40.42
2022-10-05T08:47:32.782Z,40.18
2022-10-05T08:52:57.070Z,39.52
2022-10-05T08:58:21.757Z,40.01
2022-10-05T09:03:44.877Z,38.02
2022-10-05T09:09:17.365Z,37.32
2022-10-05T09:14:30.820Z,37.38
2022-10-05T09:19:53.718Z,35.64
2022-10-05T09:25:04.930Z,36.27
2022-10-05T09:30:24.607Z,35.44
2022-10-05T09:35:52.580Z,32.56
2022-10-05T09:41:31.172Z,32.83
2022-10-05T09:47:06.902Z,32.30
2022-10-05T09:52:21.313Z,29.09
2022-10-05T09:57:53.426Z,30.13
2022-10-05T10:03:21.483Z,27.46
2022-10-05T10:08:42.195Z,27.50
2022-10-05T10:14:07.126Z,29.22
2022-10-05T10:19:33.236Z,27.90
2022-10-05T10:25:06.228Z,28.47
2022-10-05T10:30:39.248Z,28.85
2022-10-05T10:35:54.804Z,29.93
2022-10-05T10:41:43.889Z,30.26
2022-10-05T10:47:04.674Z,29.74
2022-10-05T10:52:26.970Z,28.68
2022-10-05T10:57:48.058Z,29.12
2022-10-05T11:03:22.231Z,28.82
2022-10-05T11:08:56.385Z,30.08
2022-10-05T11:14:34.892Z,30.71
2022-10-05T11:20:03.514Z,30.90
2022-10-05T11:25:44.513Z,33.24
2022-10-05T11:31:00.396Z,33.61
2022-10-05T11:36:37.803Z,32.04
2022-10-05T11:42:29.635Z,30.77
2022-10-05T11:47:43.362Z,30.38
2022-10-05T11:52:55.447Z,31.94
2022-10-05T11:58:02.833Z,30.21
2022-10-05T12:03:30.089Z,30.86
2022-10-05T12:08:45.480Z,31.19
2022-10-05T12:13:56.107Z,30.12
2022-10-05T12:19:04.883Z,29.35
2022-10-05T12:24:15.628Z,29.65
2022-10-05T12:29:24.911Z,30.48
2022-10-05T12:34:47.877Z,29.67
2022-10-05T12:39:59.488Z,29.64
2022-10-05T12:45:21.519Z,29.46
2022-10-05T12:50:29.662Z,29.09
2022-10-05T12:55:43.958Z,29.99
2022-10-05T13:00:57.399Z,30.99
2022-10-05T13:06:11.284Z,31.09
2022-10-05T13:11:23.204Z,31.47
2022-10-05T13:16:36.198Z,32.36
2022-10-05T13:21:57.594Z,30.69
2022-10-05T13:27:17.000Z,30.43
2022-10-05T13:32:25.518Z,30.36
2022-10-05T13:37:40.947Z,30.59
2022-10-05T13:42:53.841Z,32.08
2022-10-05T13:48:13.271Z,31.68
2022-10-05T13:53:24.634Z,31.83
2022-10-05T13:58:36.509Z,31.13
2022-10-05T14:03:41.238Z,30.58
2022-10-05T14:08:52.843Z,31.85
2022-10-05T14:14:14.892Z,32.16
2022-10-05T14:19:21.973Z,31.20
2022-10-05T14:24:46.108Z,31.19
2022-10-05T14:30:03.096Z,31.62
2022-10-05T14:35:15.975Z,32.49
2022-10-05T14:40:27.816Z,32.85
2022-10-05T14:45:33.933Z,34.20
2022-10-05T14:50:55.209Z,33.98
2022-10-05T14:56:28.009Z,34.90
2022-10-05T15:01:36.764Z,35.24
2022-10-05T15:06:44.570Z,36.61
2022-10-05T15:11:52.684Z,36.67
2022-10-05T15:17:03.295Z,37.12
2022-10-05T15:22:23.652Z,38.13
2022-10-05T15:27:34.575Z,40.15
2022-10-05T15:32:49.956Z,41.18
2022-10-05T15:38:00.271Z,42.07
2022-10-05T15:43:07.330Z,42.84
2022-10-05T15:48:20.267Z,44.10
2022-10-05T15:53:33.333Z,46.46
2022-10-05T15:58:55.112Z,47.47
2022-10-05T16:04:05.011Z,48.34
2022-10-05T16:09:23.321Z,49.50
2022-10-05T16:15:00.244Z,49.41
2022-10-05T16:20:26.643Z,53.10
2022-10-05T16:25:43.326Z,53.63
2022-10-05T16:30:59.121Z,52.80
2022-10-05T16:36:14.202Z,54.57
2022-10-05T16:41:28.709Z,54.97
2022-10-05T16:46:42.173Z,54.98
2022-10-05T16:51:57.044Z,56.24
2022-10-05T16:57:15.255Z,55.79
2022-10-05T17:02:30.289Z,58.11
2022-10-05T17:07:49.733Z,58.71
2022-10-05T17:13:07.623Z,59.03
2022-10-05T17:18:27.481Z,59.15
2022-10-05T17:23:54.038Z,60.53
2022-10-05T17:29:02.218Z,61.44
2022-10-05T17:34:27.705Z,62.42
2022-10-05T17:39:56.256Z,63.24
2022-10-05T17:45:06.948Z,63.43
2022-10-05T17:50:31.538Z,62.91
2022-10-05T17:55:46.511Z,63.09
2022-10-05T18:01:15.060Z,62.62
2022-10-05T18:06:48.172Z,61.90
2022-10-05T18:12:12.822Z,62.39
2022-10-05T18:17:38.091Z,63.27
2022-10-05T18:22:47.008Z,63.91
2022-10-05T18:28:06.821Z,63.82
2022-10-05T18:33:40.447Z,63.69
2022-10-05T18:38:54.057Z,64.36
2022-10-05T18:44:19.756Z,63.41
2022-10-05T18:49:38.156Z,63.94
2022-10-05T18:54:58.064Z,64.14
2022-10-05T19:00:12.359Z,64.87
2022-10-05T19:05:48.456Z,64.45
2022-10-05T19:10:57.864Z,66.58
2022-10-05T19:16:22.625Z,68.18
2022-10-05T19:21:32.072Z,68.06
2022-10-05T19:26:57.691Z,68.62
2022-10-05T19:32:10.213Z,68.42
2022-10-05T19:37:21.139Z,68.20
2022-10-05T19:42:52.912Z,67.71
2022-10-05T19:48:16.322Z,67.41
2022-10-05T19:53:27.463Z,67.03
2022-10-05T19:58:33.299Z,66.64
2022-10-05T20:03:43.715Z,66.96
2022-10-05T20:08:49.548Z,67.82
2022-10-05T20:14:19.980Z,67.74
2022-10-05T20:19:54.359Z,67.69
2022-10-05T20:25:00.317Z,70.48
2022-10-05T20:30:06.001Z,70.03
2022-10-05T20:35:12.788Z,69.81
2022-10-05T20:40:19.852Z,69.60
2022-10-05T20:45:32.191Z,69.33
2022-10-05T20:50:39.909Z,69.99
2022-10-05T20:55:45.341Z,70.18
2022-10-05T21:01:07.824Z,69.40
2022-10-05T21:06:16.431Z,69.02
2022-10-05T21:11:20.533Z,71.47
2022-10-05T21:16:27.025Z,69.86
2022-10-05T21:21:32.714Z,70.22
2022-10-05T21:26:37.549Z,70.56
2022-10-05T21:31:42.075Z,70.87
2022-10-05T21:36:49.325Z,69.83
2022-10-05T21:41:53.965Z,69.93
2022-10-05T21:46:58.132Z,70.90
2022-10-05T21:52:05.669Z,70.10
2022-10-05T21:57:13.284Z,69.79
2022-10-05T22:02:17.280Z,70.36
2022-10-05T22:29:37.772Z,69.00
2022-10-05T22:34:41.773Z,69.42
2022-10-05T22:39:45.915Z,70.10
2022-10-05T22:44:51.503Z,69.49
2022-10-05T22:49:55.801Z,69.64
2022-10-05T22:55:00.089Z,70.76
2022-10-05T23:00:06.411Z,71.91
2022-10-05T23:05:14.117Z,71.23
2022-10-05T23:10:19.556Z,71.67
2022-10-05T23:15:25.184Z,70.85
2022-10-05T23:20:29.215Z,71.00
2022-10-05T23:25:33.387Z,71.44
2022-10-05T23:30:39.197Z,69.93
2022-10-05T23:35:43.222Z,69.25
2022-10-05T23:40:47.689Z,69.60
2022-10-05T23:45:53.971Z,71.33
2022-10-05T23:50:58.288Z,70.57
2022-10-05T23:56:02.355Z,70.25
